Time;durP1;ratioP1;P1;durP2;ratioP2;P2;SDS_P1;SDS_P2;PMS_P1;PMS_P2;Temp;Humidity;BMP_temperature;BMP_pressure;BME280_temperature;BME280_humidity;BME280_pressure;Samples;Min_cycle;Max_cycle;Signal;HPM_P1;HPM_P2
2024/02/29 00:02:02;;;;;;;18.83;9.88;;;5.40;99.90;;;;;;5000443;28;20125;-76
2024/02/29 00:04:28;;;;;;;17.42;9.85;;;5.30;99.90;;;;;;5003334;28;20120;-76
2024/02/29 00:06:57;;;;;;;18.80;9.45;;;5.30;99.90;;;;;;4995683;28;20031;-76
2024/02/29 00:09:23;;;;;;;19.38;10.52;;;5.30;99.90;;;;;;4991599;28;20026;-75
2024/02/29 00:11:51;;;;;;;19.95;10.70;;;5.30;99.90;;;;;;4989820;28;20520;-75
2024/02/29 00:14:17;;;;;;;15.88;8.98;;;5.30;99.90;;;;;;5000625;28;20018;-76
2024/02/29 00:16:44;;;;;;;16.35;8.77;;;5.30;99.90;;;;;;4999594;28;20080;-76
2024/02/29 00:19:13;;;;;;;15.90;9.27;;;5.40;99.90;;;;;;5001863;28;20017;-75
2024/02/29 00:21:39;;;;;;;15.07;9.55;;;5.40;99.90;;;;;;4982228;28;20034;-75
2024/02/29 00:24:05;;;;;;;18.20;9.65;;;5.40;99.90;;;;;;5000164;28;20030;-74
2024/02/29 00:26:31;;;;;;;17.23;9.68;;;5.50;99.90;;;;;;5001969;28;20023;-74
2024/02/29 00:28:56;;;;;;;17.55;8.98;;;5.60;99.90;;;;;;4998745;28;20079;-75
2024/02/29 00:31:24;;;;;;;15.85;9.48;;;5.60;99.90;;;;;;5001605;28;20057;-75
2024/02/29 00:33:50;;;;;;;17.02;8.73;;;5.70;99.90;;;;;;4991524;28;20119;-75
2024/02/29 00:36:16;;;;;;;19.10;9.27;;;5.70;99.90;;;;;;4993547;28;20034;-76
2024/02/29 00:38:42;;;;;;;15.07;7.68;;;5.80;99.90;;;;;;4995868;28;20041;-76
2024/02/29 00:41:07;;;;;;;14.23;8.50;;;5.80;99.90;;;;;;4997255;28;20056;-76
2024/02/29 00:43:33;;;;;;;14.38;8.50;;;5.80;99.90;;;;;;4996918;28;20124;-77
2024/02/29 00:46:00;;;;;;;15.30;7.45;;;5.80;99.90;;;;;;5000342;28;20038;-77
2024/02/29 00:48:25;;;;;;;12.60;7.28;;;5.80;99.90;;;;;;4993081;28;20137;-77
2024/02/29 00:50:51;;;;;;;14.02;7.07;;;5.80;99.90;;;;;;4989387;28;20617;-77
2024/02/29 00:53:17;;;;;;;16.38;6.93;;;5.90;99.90;;;;;;4994343;28;20029;-76
2024/02/29 00:55:43;;;;;;;13.73;7.72;;;5.90;99.90;;;;;;4997754;28;20115;-76
2024/02/29 00:58:09;;;;;;;14.80;7.60;;;5.90;99.90;;;;;;4992423;28;20030;-76
2024/02/29 01:00:34;;;;;;;11.75;7.47;;;5.90;99.90;;;;;;5002820;28;20033;-77
2024/02/29 01:03:00;;;;;;;15.02;7.60;;;6.00;99.90;;;;;;5000522;28;20509;-76
2024/02/29 01:05:26;;;;;;;13.70;7.53;;;6.00;99.90;;;;;;4992552;28;20166;-76
2024/02/29 01:07:51;;;;;;;13.60;7.70;;;6.00;99.90;;;;;;4998319;28;20145;-75
2024/02/29 01:10:17;;;;;;;13.95;7.35;;;6.00;99.90;;;;;;4988936;28;20033;-75
2024/02/29 01:12:43;;;;;;;14.30;6.95;;;6.10;99.90;;;;;;5000929;28;20560;-75
2024/02/29 01:15:10;;;;;;;17.02;8.25;;;6.10;99.90;;;;;;5002931;28;20478;-76
2024/02/29 01:17:36;;;;;;;14.02;7.85;;;6.10;99.90;;;;;;5000446;28;20034;-75
2024/02/29 01:20:03;;;;;;;14.65;7.75;;;6.10;99.90;;;;;;4990294;28;20101;-75
2024/02/29 01:22:29;;;;;;;13.88;7.15;;;6.20;99.90;;;;;;4992183;28;20153;-75
2024/02/29 01:24:54;;;;;;;17.40;8.20;;;6.20;99.90;;;;;;4991542;28;20113;-76
2024/02/29 01:27:20;;;;;;;15.63;7.85;;;6.20;99.90;;;;;;5005496;28;20029;-76
2024/02/29 01:29:45;;;;;;;19.20;8.30;;;6.20;99.90;;;;;;4997638;28;20717;-76
2024/02/29 01:32:11;;;;;;;15.02;7.97;;;6.30;99.90;;;;;;4997560;28;20038;-76
2024/02/29 01:34:36;;;;;;;14.88;7.38;;;6.30;99.90;;;;;;5009372;28;20030;-76
2024/02/29 01:37:03;;;;;;;15.68;7.53;;;6.30;99.90;;;;;;4993436;28;20109;-77
2024/02/29 01:39:29;;;;;;;14.15;7.82;;;6.30;99.90;;;;;;4993241;28;20585;-77
2024/02/29 01:41:55;;;;;;;19.95;8.90;;;6.30;99.90;;;;;;4990982;28;20034;-76
2024/02/29 01:44:22;;;;;;;15.93;8.35;;;6.30;99.90;;;;;;4995428;28;20482;-77
2024/02/29 01:46:47;;;;;;;16.40;9.13;;;6.30;99.90;;;;;;4999359;28;20030;-75
2024/02/29 01:49:14;;;;;;;17.25;8.30;;;6.30;99.90;;;;;;4998740;28;20061;-75
2024/02/29 01:51:41;;;;;;;17.48;8.68;;;6.40;99.90;;;;;;4991445;28;20064;-76
2024/02/29 01:54:07;;;;;;;22.27;9.52;;;6.30;99.90;;;;;;4990083;28;20495;-76
2024/02/29 01:56:33;;;;;;;20.17;9.75;;;6.40;99.90;;;;;;4992273;28;20065;-76
2024/02/29 01:59:01;;;;;;;17.73;8.73;;;6.40;99.90;;;;;;4998302;28;20360;-77
2024/02/29 02:01:28;;;;;;;14.65;8.77;;;6.40;99.90;;;;;;4985613;28;20029;-75
2024/02/29 02:03:54;;;;;;;16.65;8.20;;;6.40;99.90;;;;;;4997471;28;20109;-76
2024/02/29 02:06:19;;;;;;;18.02;9.77;;;6.40;99.90;;;;;;5003880;28;20526;-76
2024/02/29 02:08:45;;;;;;;21.15;9.80;;;6.40;99.90;;;;;;5010627;28;20088;-75
2024/02/29 02:11:10;;;;;;;22.23;10.80;;;6.40;99.90;;;;;;4996586;28;20430;-75
2024/02/29 02:13:36;;;;;;;23.40;10.32;;;6.30;99.90;;;;;;4995632;28;20034;-75
2024/02/29 02:16:02;;;;;;;23.25;10.02;;;6.40;99.90;;;;;;4998238;28;20031;-75
2024/02/29 02:18:27;;;;;;;20.65;9.63;;;6.40;99.90;;;;;;4999539;28;20026;-75
2024/02/29 02:20:56;;;;;;;18.33;10.38;;;6.40;99.90;;;;;;5009049;28;20053;-75
2024/02/29 02:23:21;;;;;;;21.00;10.38;;;6.30;99.90;;;;;;4996155;28;20049;-75
2024/02/29 02:25:47;;;;;;;24.20;10.52;;;6.30;99.90;;;;;;4995450;28;20022;-75
2024/02/29 02:28:13;;;;;;;18.90;9.35;;;6.30;99.90;;;;;;5004351;28;20501;-77
2024/02/29 02:30:40;;;;;;;19.60;10.48;;;6.30;99.90;;;;;;4999980;28;20481;-75
2024/02/29 02:33:05;;;;;;;19.63;10.00;;;6.30;99.90;;;;;;4997529;28;20034;-75
2024/02/29 02:35:34;;;;;;;20.92;10.73;;;6.30;99.90;;;;;;5008556;28;20072;-75
2024/02/29 02:38:03;;;;;;;21.08;10.15;;;6.20;99.90;;;;;;4996813;28;20387;-75
2024/02/29 02:40:29;;;;;;;19.33;9.68;;;6.20;99.90;;;;;;4999071;28;20382;-76
2024/02/29 02:42:54;;;;;;;22.83;10.10;;;6.20;99.90;;;;;;4992170;28;20026;-76
2024/02/29 02:45:20;;;;;;;20.10;10.55;;;6.10;99.90;;;;;;5001616;28;20123;-75
2024/02/29 02:47:45;;;;;;;19.13;9.80;;;6.10;99.90;;;;;;5003754;28;20026;-75
2024/02/29 02:50:11;;;;;;;18.80;10.27;;;6.00;99.90;;;;;;4999801;28;20042;-75
2024/02/29 02:52:40;;;;;;;19.13;9.55;;;6.00;99.90;;;;;;5004841;28;20035;-75
2024/02/29 02:55:06;;;;;;;20.58;10.43;;;6.00;99.90;;;;;;5003352;28;20030;-75
2024/02/29 02:57:32;;;;;;;20.85;9.68;;;5.90;99.90;;;;;;4990641;28;20026;-75
2024/02/29 02:59:57;;;;;;;21.10;10.15;;;5.90;99.90;;;;;;4991016;28;20364;-75
2024/02/29 03:02:23;;;;;;;23.30;11.40;;;6.00;99.90;;;;;;4992741;28;20045;-75
2024/02/29 03:04:48;;;;;;;24.60;11.25;;;6.00;99.90;;;;;;4996783;28;20026;-75
2024/02/29 03:07:14;;;;;;;22.92;9.98;;;6.00;99.90;;;;;;4987900;28;20034;-75
2024/02/29 03:09:39;;;;;;;23.85;11.13;;;6.00;99.90;;;;;;4995168;28;20402;-75
2024/02/29 03:12:05;;;;;;;22.52;10.50;;;6.00;99.90;;;;;;4991739;28;20046;-75
2024/02/29 03:14:31;;;;;;;26.33;11.18;;;6.00;99.90;;;;;;4993341;28;20022;-74
2024/02/29 03:16:56;;;;;;;21.58;9.82;;;6.00;99.90;;;;;;4998979;28;20034;-74
2024/02/29 03:19:22;;;;;;;19.70;10.75;;;6.00;99.90;;;;;;4999972;28;20022;-75
2024/02/29 03:21:48;;;;;;;22.83;11.48;;;6.00;99.90;;;;;;4995082;28;20061;-74
2024/02/29 03:24:13;;;;;;;23.20;11.27;;;6.00;99.90;;;;;;4999000;28;20106;-75
2024/02/29 03:26:39;;;;;;;21.27;11.07;;;6.00;99.90;;;;;;4989723;28;20033;-74
2024/02/29 03:29:05;;;;;;;22.75;11.43;;;6.00;99.90;;;;;;4991316;28;20027;-74
2024/02/29 03:31:30;;;;;;;22.02;11.13;;;6.00;99.90;;;;;;4991516;28;20070;-74
2024/02/29 03:33:56;;;;;;;23.50;11.75;;;6.00;99.90;;;;;;4991747;28;20487;-74
2024/02/29 03:36:22;;;;;;;21.40;11.63;;;6.00;99.90;;;;;;4994411;28;20057;-74
2024/02/29 03:38:47;;;;;;;23.33;11.80;;;6.00;99.90;;;;;;4993334;28;20084;-76
2024/02/29 03:41:13;;;;;;;19.73;11.10;;;6.10;99.90;;;;;;4992699;28;20716;-74
2024/02/29 03:43:38;;;;;;;19.48;10.90;;;6.10;99.90;;;;;;4992150;28;20041;-75
2024/02/29 03:46:04;;;;;;;24.80;11.95;;;6.10;99.90;;;;;;4997131;28;20029;-74
2024/02/29 03:48:30;;;;;;;25.60;10.82;;;6.10;99.90;;;;;;4992669;28;20057;-76
2024/02/29 03:50:55;;;;;;;25.00;11.98;;;6.10;99.90;;;;;;4983460;28;20030;-75
2024/02/29 03:53:21;;;;;;;24.60;11.77;;;6.10;99.90;;;;;;4991046;28;20160;-76
2024/02/29 03:55:49;;;;;;;20.65;10.80;;;6.10;99.90;;;;;;4993939;28;20077;-75
2024/02/29 03:58:15;;;;;;;24.60;11.48;;;6.10;99.90;;;;;;5004168;28;20030;-76
2024/02/29 04:00:42;;;;;;;25.33;12.50;;;6.10;99.90;;;;;;5002233;28;20383;-75
2024/02/29 04:03:08;;;;;;;22.20;12.23;;;6.20;99.90;;;;;;4997130;28;20023;-76
2024/02/29 04:05:34;;;;;;;26.65;12.25;;;6.20;99.90;;;;;;4993980;28;20048;-76
2024/02/29 04:08:10;;;;;;;23.63;12.18;;;6.20;99.90;;;;;;4989536;28;20030;-76
2024/02/29 04:10:48;;;;;;;22.38;11.52;;;6.30;99.90;;;;;;4990797;28;20038;-75
2024/02/29 04:13:14;;;;;;;24.55;12.07;;;6.30;99.90;;;;;;4991164;28;20042;-76
2024/02/29 04:15:39;;;;;;;23.85;13.63;;;6.40;99.90;;;;;;5009792;28;20033;-76
2024/02/29 04:18:05;;;;;;;25.10;12.40;;;6.30;99.90;;;;;;5003194;28;20068;-76
2024/02/29 04:20:31;;;;;;;24.10;11.63;;;6.30;99.90;;;;;;5000566;28;20041;-76
2024/02/29 04:22:56;;;;;;;27.25;12.02;;;6.40;99.90;;;;;;5000703;28;20034;-76
2024/02/29 04:25:25;;;;;;;19.95;11.40;;;6.40;99.90;;;;;;4992351;28;20015;-76
2024/02/29 04:27:51;;;;;;;23.40;12.25;;;6.40;99.90;;;;;;5006925;28;20038;-76
2024/02/29 04:30:17;;;;;;;21.83;12.25;;;6.40;99.90;;;;;;4994470;28;20023;-76
2024/02/29 04:32:43;;;;;;;24.00;12.55;;;6.50;99.90;;;;;;4987410;28;20049;-76
2024/02/29 04:35:09;;;;;;;22.50;11.25;;;6.40;99.90;;;;;;4995380;28;20034;-76
2024/02/29 04:37:36;;;;;;;22.58;11.70;;;6.50;99.90;;;;;;4998235;28;20038;-76
2024/02/29 04:40:03;;;;;;;25.83;13.38;;;6.50;99.90;;;;;;4999113;28;20375;-75
2024/02/29 04:42:29;;;;;;;21.98;12.13;;;6.50;99.90;;;;;;4994695;28;20117;-76
2024/02/29 04:44:55;;;;;;;21.05;11.40;;;6.50;99.90;;;;;;4996872;28;20441;-75
2024/02/29 04:47:20;;;;;;;21.27;11.85;;;6.50;99.90;;;;;;4998336;28;20038;-75
2024/02/29 04:49:46;;;;;;;21.50;11.52;;;6.50;99.90;;;;;;5006071;28;20046;-75
2024/02/29 04:52:11;;;;;;;21.02;11.93;;;6.50;99.90;;;;;;4991751;28;20060;-75
2024/02/29 04:54:37;;;;;;;25.63;11.52;;;6.50;99.90;;;;;;4990183;28;20030;-76
2024/02/29 04:57:03;;;;;;;23.48;12.32;;;6.50;99.90;;;;;;4996666;28;20034;-75
2024/02/29 04:59:29;;;;;;;21.92;11.45;;;6.50;99.90;;;;;;4995339;28;20038;-76
2024/02/29 05:01:55;;;;;;;24.55;12.27;;;6.40;99.90;;;;;;4998953;28;20497;-76
2024/02/29 05:04:20;;;;;;;23.65;11.52;;;6.40;99.90;;;;;;4989941;28;20106;-76
2024/02/29 05:06:46;;;;;;;24.00;12.85;;;6.40;99.90;;;;;;4995872;28;20030;-75
2024/02/29 05:09:11;;;;;;;25.92;12.73;;;6.40;99.90;;;;;;4996088;28;20041;-76
2024/02/29 05:11:37;;;;;;;25.02;13.05;;;6.40;99.90;;;;;;4991106;28;20038;-76
2024/02/29 05:14:05;;;;;;;24.27;12.38;;;6.40;99.90;;;;;;4992646;28;20513;-76
2024/02/29 05:16:30;;;;;;;22.45;12.27;;;6.40;99.90;;;;;;4993045;28;20486;-76
2024/02/29 05:18:56;;;;;;;28.25;14.25;;;6.40;99.90;;;;;;4978445;28;20106;-75
2024/02/29 05:21:22;;;;;;;24.48;13.20;;;6.40;99.90;;;;;;4991423;28;20038;-76
2024/02/29 05:23:48;;;;;;;23.85;12.52;;;6.40;99.90;;;;;;4991447;28;20116;-76
2024/02/29 05:26:13;;;;;;;22.55;11.95;;;6.40;99.90;;;;;;4993873;28;20081;-76
2024/02/29 05:28:39;;;;;;;25.90;13.10;;;6.40;99.90;;;;;;4993950;28;20038;-76
2024/02/29 05:31:04;;;;;;;22.48;12.25;;;6.40;99.90;;;;;;4999104;28;20502;-76
2024/02/29 05:33:30;;;;;;;30.48;13.38;;;6.40;99.90;;;;;;4997353;28;20033;-76
2024/02/29 05:35:56;;;;;;;24.40;11.75;;;6.40;99.90;;;;;;5002109;28;20061;-76
2024/02/29 05:38:21;;;;;;;21.55;11.75;;;6.40;99.90;;;;;;5008801;28;20034;-76
2024/02/29 05:40:47;;;;;;;23.25;11.88;;;6.50;99.90;;;;;;4999110;28;20030;-76
2024/02/29 05:43:14;;;;;;;24.75;12.48;;;6.50;99.90;;;;;;4987711;28;20053;-76
2024/02/29 05:45:40;;;;;;;22.08;12.82;;;6.50;99.90;;;;;;4996005;28;20114;-76
2024/02/29 05:48:06;;;;;;;20.58;11.40;;;6.50;99.90;;;;;;5006866;28;20048;-75
2024/02/29 05:50:32;;;;;;;22.08;11.88;;;6.50;99.90;;;;;;4994681;28;20030;-76
2024/02/29 05:52:58;;;;;;;23.55;11.85;;;6.60;99.90;;;;;;4996473;28;20030;-76
2024/02/29 05:55:24;;;;;;;23.08;12.48;;;6.60;99.90;;;;;;4996772;28;20113;-76
2024/02/29 05:57:50;;;;;;;21.35;12.05;;;6.60;99.90;;;;;;4995343;28;20097;-75
2024/02/29 06:00:17;;;;;;;21.08;11.90;;;6.60;99.90;;;;;;5000015;28;20026;-76
2024/02/29 06:02:43;;;;;;;20.77;11.65;;;6.60;99.90;;;;;;5001503;28;20628;-76
2024/02/29 06:05:09;;;;;;;20.30;11.02;;;6.60;99.90;;;;;;5001768;28;20177;-76
2024/02/29 06:07:36;;;;;;;23.65;11.77;;;6.60;99.90;;;;;;4990036;28;20080;-76
2024/02/29 06:10:02;;;;;;;21.88;11.93;;;6.70;99.90;;;;;;4996122;28;20470;-75
2024/02/29 06:12:30;;;;;;;20.67;11.48;;;6.70;99.90;;;;;;4993547;28;20026;-76
2024/02/29 06:14:56;;;;;;;23.35;12.38;;;6.70;99.90;;;;;;4991456;28;20425;-76
2024/02/29 06:17:22;;;;;;;20.05;11.05;;;6.70;99.90;;;;;;4997002;28;20030;-76
2024/02/29 06:19:48;;;;;;;18.38;10.55;;;6.70;99.90;;;;;;4999277;28;20022;-76
2024/02/29 06:22:14;;;;;;;20.23;11.45;;;6.70;99.90;;;;;;5008583;28;20030;-76
2024/02/29 06:24:40;;;;;;;20.30;11.05;;;6.70;99.90;;;;;;4991516;28;20022;-76
2024/02/29 06:27:05;;;;;;;20.60;12.15;;;6.70;99.90;;;;;;5001488;28;20112;-76
2024/02/29 06:29:31;;;;;;;21.98;12.25;;;6.70;99.90;;;;;;4998956;28;20029;-75
2024/02/29 06:31:57;;;;;;;23.40;12.65;;;6.70;99.90;;;;;;5002400;28;20045;-75
2024/02/29 06:34:23;;;;;;;23.65;10.95;;;6.70;99.90;;;;;;5013773;28;20727;-76
2024/02/29 06:36:48;;;;;;;21.92;11.93;;;6.80;99.90;;;;;;4989274;28;20026;-77
2024/02/29 06:39:14;;;;;;;24.92;12.50;;;6.80;99.90;;;;;;4993346;28;20086;-76
2024/02/29 06:41:43;;;;;;;19.77;11.60;;;6.80;99.90;;;;;;4989527;28;20054;-76
2024/02/29 06:44:09;;;;;;;20.63;11.90;;;6.80;99.90;;;;;;5001107;28;20021;-76
2024/02/29 06:46:35;;;;;;;22.50;11.45;;;6.90;99.90;;;;;;4992700;28;20034;-76
2024/02/29 06:49:01;;;;;;;23.27;11.25;;;6.90;99.90;;;;;;5001973;28;20038;-76
2024/02/29 06:51:27;;;;;;;21.05;11.05;;;6.90;99.90;;;;;;4990909;28;20065;-76
2024/02/29 06:53:54;;;;;;;21.17;11.45;;;6.90;99.90;;;;;;5006299;28;20049;-76
2024/02/29 06:56:19;;;;;;;21.20;10.30;;;7.00;99.90;;;;;;4991883;28;20026;-76
2024/02/29 06:58:45;;;;;;;22.30;11.75;;;7.00;99.90;;;;;;4991081;28;20030;-76
2024/02/29 07:01:13;;;;;;;21.55;10.38;;;7.10;99.90;;;;;;4987980;28;20533;-76
2024/02/29 07:03:39;;;;;;;25.40;11.35;;;7.20;99.90;;;;;;4994387;28;20035;-76
2024/02/29 07:06:05;;;;;;;20.20;10.32;;;7.20;99.90;;;;;;5000528;28;20454;-77
2024/02/29 07:08:34;;;;;;;19.80;9.80;;;7.20;99.90;;;;;;5000079;28;20089;-76
2024/02/29 07:11:00;;;;;;;19.23;9.65;;;7.30;99.90;;;;;;4995495;28;20084;-76
2024/02/29 07:13:26;;;;;;;23.80;11.50;;;7.30;99.90;;;;;;4995584;28;20030;-76
2024/02/29 07:15:51;;;;;;;21.42;10.60;;;7.30;99.90;;;;;;4994610;28;20036;-76
2024/02/29 07:18:17;;;;;;;20.75;10.13;;;7.30;99.90;;;;;;4985774;28;20097;-76
2024/02/29 07:20:43;;;;;;;20.58;11.02;;;7.40;99.90;;;;;;4984401;28;20045;-76
2024/02/29 07:23:10;;;;;;;20.00;10.10;;;7.40;99.90;;;;;;4990931;28;20045;-76
2024/02/29 07:25:35;;;;;;;16.77;9.75;;;7.40;99.90;;;;;;4988998;28;20128;-76
2024/02/29 07:28:03;;;;;;;17.92;10.05;;;7.50;99.90;;;;;;4987914;28;20334;-76
2024/02/29 07:30:30;;;;;;;19.25;10.85;;;7.50;99.90;;;;;;4993934;28;20026;-76
2024/02/29 07:33:01;;;;;;;19.65;10.63;;;7.50;99.90;;;;;;4993277;28;20044;-77
2024/02/29 07:35:31;;;;;;;18.83;10.32;;;7.50;99.90;;;;;;4988963;28;20446;-76
2024/02/29 07:37:57;;;;;;;16.67;10.35;;;7.50;99.90;;;;;;4994400;28;20026;-75
2024/02/29 07:40:23;;;;;;;20.13;11.00;;;7.50;99.90;;;;;;4992201;28;20387;-74
2024/02/29 07:42:48;;;;;;;20.73;11.43;;;7.50;99.90;;;;;;4991380;28;20080;-74
2024/02/29 07:45:14;;;;;;;21.13;10.75;;;7.50;99.90;;;;;;4998430;28;20022;-75
2024/02/29 07:47:40;;;;;;;22.30;10.68;;;7.50;99.90;;;;;;4992872;28;20031;-75
2024/02/29 07:50:06;;;;;;;19.30;11.68;;;7.50;99.90;;;;;;4992556;28;20035;-75
2024/02/29 07:52:32;;;;;;;22.52;11.23;;;7.50;99.90;;;;;;5001228;28;20042;-75
2024/02/29 07:54:58;;;;;;;22.70;11.63;;;7.60;99.90;;;;;;4997677;28;20029;-74
2024/02/29 07:57:24;;;;;;;24.33;11.88;;;7.60;99.90;;;;;;4987342;28;20030;-73
2024/02/29 07:59:50;;;;;;;23.80;11.38;;;7.70;99.90;;;;;;4994976;28;20036;-74
2024/02/29 08:02:17;;;;;;;23.85;12.38;;;7.70;99.90;;;;;;4986338;28;20030;-74
2024/02/29 08:04:45;;;;;;;21.13;10.18;;;7.70;99.90;;;;;;4992610;28;20030;-75
2024/02/29 08:07:11;;;;;;;21.05;12.23;;;7.70;99.90;;;;;;4992735;28;20034;-75
2024/02/29 08:09:37;;;;;;;23.25;10.55;;;7.80;99.90;;;;;;4996237;28;20418;-75
2024/02/29 08:12:03;;;;;;;17.20;10.63;;;7.80;99.90;;;;;;5004085;28;20038;-75
2024/02/29 08:14:30;;;;;;;22.05;11.27;;;7.80;99.90;;;;;;5002365;28;20022;-75
2024/02/29 08:16:55;;;;;;;21.17;11.10;;;7.90;99.90;;;;;;4992582;28;20030;-75
2024/02/29 08:19:23;;;;;;;23.15;11.57;;;7.90;99.90;;;;;;4992387;28;20626;-75
2024/02/29 08:21:49;;;;;;;20.75;12.27;;;8.00;99.90;;;;;;4982561;28;20026;-76
2024/02/29 08:24:15;;;;;;;22.45;10.60;;;8.00;99.90;;;;;;4989216;28;20023;-76
2024/02/29 08:26:41;;;;;;;22.42;12.13;;;8.00;99.90;;;;;;4994811;28;20029;-76
2024/02/29 08:29:06;;;;;;;21.23;11.55;;;8.10;99.90;;;;;;4979109;28;20019;-76
2024/02/29 08:31:33;;;;;;;19.83;11.15;;;8.10;99.90;;;;;;4990715;28;20058;-76
2024/02/29 08:33:59;;;;;;;18.15;10.23;;;8.10;99.90;;;;;;4993931;28;20097;-76
2024/02/29 08:36:25;;;;;;;22.52;11.60;;;8.20;99.90;;;;;;4991310;28;20143;-76
2024/02/29 08:38:51;;;;;;;23.50;12.45;;;8.10;99.90;;;;;;4976873;28;20031;-75
2024/02/29 08:41:17;;;;;;;21.13;11.50;;;8.20;99.90;;;;;;4979017;28;20034;-75
2024/02/29 08:43:43;;;;;;;21.35;11.75;;;8.20;99.90;;;;;;4984054;28;20026;-76
2024/02/29 08:46:09;;;;;;;19.25;10.98;;;8.20;99.90;;;;;;4981423;28;20092;-76
2024/02/29 08:48:38;;;;;;;23.60;12.73;;;8.20;99.90;;;;;;4987144;28;20054;-75
2024/02/29 08:51:04;;;;;;;23.98;12.13;;;8.30;99.90;;;;;;4981801;28;20680;-76
2024/02/29 08:53:30;;;;;;;21.92;11.75;;;8.30;99.90;;;;;;4981586;28;20053;-76
2024/02/29 08:55:56;;;;;;;20.65;11.68;;;8.30;99.90;;;;;;4982132;28;20054;-77
2024/02/29 08:58:21;;;;;;;24.85;13.00;;;8.40;99.90;;;;;;4983566;28;20057;-75
2024/02/29 09:00:47;;;;;;;21.80;11.05;;;8.40;99.90;;;;;;4983696;28;20026;-75
2024/02/29 09:03:15;;;;;;;20.83;11.50;;;8.50;99.90;;;;;;4988637;28;20088;-75
2024/02/29 09:05:41;;;;;;;22.63;11.35;;;8.50;99.90;;;;;;4989995;28;20033;-75
2024/02/29 09:08:10;;;;;;;19.75;11.02;;;8.50;99.90;;;;;;4989427;28;20026;-75
2024/02/29 09:10:36;;;;;;;20.75;12.35;;;8.60;99.90;;;;;;4985197;28;20038;-75
2024/02/29 09:13:04;;;;;;;19.58;11.68;;;8.60;99.90;;;;;;4990166;28;20049;-76
2024/02/29 09:15:30;;;;;;;18.65;11.52;;;8.60;99.90;;;;;;4987763;28;20027;-77
2024/02/29 09:17:55;;;;;;;19.77;11.10;;;8.60;99.90;;;;;;4985313;28;20038;-76
2024/02/29 09:20:21;;;;;;;21.33;10.05;;;8.60;99.90;;;;;;4989441;28;20479;-75
2024/02/29 09:22:49;;;;;;;20.00;10.98;;;8.70;99.90;;;;;;4995804;28;20457;-75
2024/02/29 09:25:15;;;;;;;20.33;10.50;;;8.80;99.90;;;;;;4994639;28;20030;-76
2024/02/29 09:27:41;;;;;;;18.35;10.25;;;8.80;99.90;;;;;;4983802;28;20034;-74
2024/02/29 09:30:07;;;;;;;22.23;9.65;;;8.90;99.90;;;;;;4983699;28;20022;-75
2024/02/29 09:32:32;;;;;;;20.23;9.68;;;9.00;99.90;;;;;;4996984;28;20062;-75
2024/02/29 09:34:58;;;;;;;21.35;10.35;;;9.00;99.90;;;;;;4991474;28;20022;-75
2024/02/29 09:37:24;;;;;;;17.25;9.07;;;9.10;99.90;;;;;;5007644;28;20052;-75
2024/02/29 09:39:50;;;;;;;18.23;9.52;;;9.20;99.90;;;;;;4988999;28;20118;-75
2024/02/29 09:42:16;;;;;;;15.18;8.95;;;9.20;99.90;;;;;;4987588;28;20494;-76
2024/02/29 09:44:43;;;;;;;15.10;8.68;;;9.30;99.90;;;;;;4988448;28;20502;-75
2024/02/29 09:47:09;;;;;;;15.13;7.88;;;9.30;99.90;;;;;;4988002;28;20581;-75
2024/02/29 09:49:35;;;;;;;17.73;9.25;;;9.40;99.90;;;;;;4992944;28;20427;-75
2024/02/29 09:52:01;;;;;;;16.98;8.63;;;9.40;99.90;;;;;;4994328;28;20049;-75
2024/02/29 09:54:29;;;;;;;15.82;8.23;;;9.40;99.90;;;;;;4988697;28;20038;-76
2024/02/29 09:56:55;;;;;;;14.23;7.65;;;9.50;99.90;;;;;;4995711;28;20053;-77
2024/02/29 09:59:22;;;;;;;14.18;8.10;;;9.50;99.90;;;;;;4999566;28;20057;-77
2024/02/29 10:01:51;;;;;;;18.73;8.23;;;9.50;99.90;;;;;;4977807;28;20531;-77
2024/02/29 10:04:16;;;;;;;13.68;6.93;;;9.50;99.90;;;;;;4992976;28;20077;-76
2024/02/29 10:06:42;;;;;;;14.23;7.40;;;9.60;99.90;;;;;;4993703;28;20038;-76
2024/02/29 10:09:08;;;;;;;13.43;7.70;;;9.60;99.90;;;;;;4986988;28;20165;-77
2024/02/29 10:11:42;;;;;;;16.13;7.50;;;9.60;99.90;;;;;;4992239;28;20455;-77
2024/02/29 10:14:21;;;;;;;12.73;7.07;;;9.70;99.90;;;;;;4989295;28;20053;-78
2024/02/29 10:17:05;;;;;;;11.13;7.18;;;9.70;99.90;;;;;;4991262;28;20072;-77
2024/02/29 10:19:33;;;;;;;13.48;7.05;;;9.70;99.90;;;;;;4990629;28;20087;-77
2024/02/29 10:21:58;;;;;;;12.55;6.85;;;9.80;99.90;;;;;;4990021;28;20081;-77
2024/02/29 10:24:24;;;;;;;12.48;7.43;;;9.80;99.90;;;;;;4992552;28;20065;-76
2024/02/29 10:26:50;;;;;;;12.75;7.00;;;9.80;99.90;;;;;;4989719;28;20510;-77
2024/02/29 10:29:16;;;;;;;15.57;6.93;;;9.80;99.90;;;;;;4994490;28;20026;-77
2024/02/29 10:31:42;;;;;;;14.05;7.50;;;9.80;99.90;;;;;;4993670;28;20046;-76
2024/02/29 10:34:11;;;;;;;11.50;7.10;;;9.90;99.90;;;;;;4998827;28;20394;-77
2024/02/29 10:36:39;;;;;;;13.93;7.43;;;10.00;99.90;;;;;;5005666;28;20120;-78
2024/02/29 10:39:04;;;;;;;14.25;6.68;;;10.10;99.90;;;;;;4982492;28;20547;-78
2024/02/29 10:41:31;;;;;;;14.93;7.75;;;10.10;99.90;;;;;;4995836;28;20106;-77
2024/02/29 10:44:02;;;;;;;12.27;7.47;;;10.10;99.90;;;;;;4994509;28;20034;-77
2024/02/29 10:46:28;;;;;;;15.15;7.57;;;10.10;99.90;;;;;;4993034;28;20045;-77
2024/02/29 10:49:06;;;;;;;16.00;8.15;;;10.10;99.90;;;;;;4990260;28;20054;-76
2024/02/29 10:51:54;;;;;;;11.43;7.20;;;10.10;99.90;;;;;;5000815;28;20077;-77
2024/02/29 10:54:39;;;;;;;15.90;7.55;;;10.10;99.90;;;;;;4992667;28;20030;-77
2024/02/29 10:57:14;;;;;;;11.73;6.85;;;10.00;99.90;;;;;;4988906;28;20022;-77
2024/02/29 10:59:41;;;;;;;14.77;7.50;;;10.00;99.90;;;;;;4991615;28;20059;-77
2024/02/29 11:02:07;;;;;;;12.20;6.47;;;10.10;99.90;;;;;;4996764;28;20371;-76
2024/02/29 11:04:33;;;;;;;10.98;6.13;;;10.10;99.90;;;;;;4988658;28;20038;-77
2024/02/29 11:06:59;;;;;;;13.13;6.80;;;10.10;99.90;;;;;;4995024;28;20452;-76
2024/02/29 11:09:25;;;;;;;13.07;7.00;;;10.10;99.90;;;;;;4987951;28;20022;-78
2024/02/29 11:12:10;;;;;;;12.32;6.65;;;10.20;99.90;;;;;;4986330;28;20034;-78
2024/02/29 11:14:36;;;;;;;8.98;5.80;;;10.20;99.90;;;;;;4989033;28;20031;-77
2024/02/29 11:17:04;;;;;;;13.95;7.13;;;10.20;99.90;;;;;;4998624;28;20018;-77
2024/02/29 11:19:30;;;;;;;10.27;6.00;;;10.10;99.90;;;;;;4996788;28;20483;-79
2024/02/29 11:21:55;;;;;;;11.07;6.15;;;10.10;99.90;;;;;;4999499;28;20033;-77
2024/02/29 11:24:22;;;;;;;11.52;6.30;;;10.10;99.90;;;;;;4997955;28;20109;-78
2024/02/29 11:26:58;;;;;;;11.85;6.55;;;10.10;99.90;;;;;;4986394;28;20030;-77
2024/02/29 11:29:24;;;;;;;11.82;7.13;;;10.10;99.90;;;;;;4989936;28;20030;-78
2024/02/29 11:31:54;;;;;;;10.88;6.18;;;10.10;99.90;;;;;;4992000;28;20039;-76
2024/02/29 11:34:22;;;;;;;9.20;5.90;;;10.10;99.90;;;;;;4985755;28;20092;-75
2024/02/29 11:36:49;;;;;;;10.15;6.35;;;10.10;99.90;;;;;;4987169;28;20102;-77
2024/02/29 11:39:17;;;;;;;11.55;5.85;;;10.10;99.90;;;;;;4989784;28;20561;-77
2024/02/29 11:41:43;;;;;;;12.40;6.40;;;10.10;99.90;;;;;;4991873;28;20037;-78
2024/02/29 11:44:09;;;;;;;12.27;6.25;;;10.10;99.90;;;;;;4989245;28;20490;-77
2024/02/29 11:46:35;;;;;;;10.55;6.00;;;10.10;99.90;;;;;;5003889;28;20109;-77
2024/02/29 11:49:00;;;;;;;11.70;6.43;;;10.10;99.90;;;;;;4992526;28;20053;-78
2024/02/29 11:51:28;;;;;;;9.60;5.78;;;10.10;99.90;;;;;;5002889;28;20038;-77
2024/02/29 11:53:54;;;;;;;10.60;6.20;;;10.10;99.90;;;;;;4998520;28;20038;-77
2024/02/29 11:56:20;;;;;;;13.48;6.55;;;10.10;99.90;;;;;;5004606;28;20505;-78
2024/02/29 11:58:49;;;;;;;12.93;6.00;;;10.20;99.90;;;;;;4999307;28;20026;-77
2024/02/29 12:01:15;;;;;;;12.38;6.57;;;10.20;99.90;;;;;;4991325;28;20066;-77
2024/02/29 12:03:41;;;;;;;11.40;6.13;;;10.30;99.90;;;;;;4997773;28;20502;-77
2024/02/29 12:06:06;;;;;;;13.85;7.45;;;10.40;99.90;;;;;;4991251;28;20053;-77
2024/02/29 12:08:32;;;;;;;10.50;6.80;;;10.40;99.90;;;;;;4992918;28;20035;-78
2024/02/29 12:10:59;;;;;;;12.38;6.85;;;10.40;99.90;;;;;;4998569;28;20467;-78
2024/02/29 12:13:26;;;;;;;12.95;6.55;;;10.40;99.90;;;;;;4995240;28;20030;-77
2024/02/29 12:15:54;;;;;;;10.68;6.00;;;10.40;99.90;;;;;;4992291;28;20116;-77
2024/02/29 12:18:21;;;;;;;12.82;6.68;;;10.30;99.90;;;;;;4989058;28;20034;-76
2024/02/29 12:20:47;;;;;;;13.32;7.18;;;10.30;99.90;;;;;;4990623;28;20463;-77
2024/02/29 12:23:18;;;;;;;14.00;7.05;;;10.30;99.90;;;;;;4985214;28;20066;-77
2024/02/29 12:25:44;;;;;;;12.43;6.20;;;10.20;99.90;;;;;;4992653;28;20085;-77
2024/02/29 12:28:11;;;;;;;15.07;7.35;;;10.30;99.90;;;;;;4994761;28;20041;-77
2024/02/29 12:30:37;;;;;;;12.50;6.57;;;10.30;99.90;;;;;;4992720;28;20100;-76
2024/02/29 12:33:03;;;;;;;11.85;6.38;;;10.30;99.90;;;;;;4986327;28;20061;-77
2024/02/29 12:35:31;;;;;;;10.68;6.10;;;10.30;99.90;;;;;;4987120;28;20089;-76
2024/02/29 12:37:58;;;;;;;10.45;6.22;;;10.40;99.90;;;;;;4992127;28;20037;-77